Bordertown, Nevada
Current Conditions -  °F | °C
As of 10:35 PM on Thursday 30 Oct 2014 (Local Time) from KRTS Reporting Station
Clear Clear  
Wind Chill: 57°   Ceiling: Unl
Heat Index: 57°   Visibility: 10mi
Dew Point: 25°   Wind: 0mph
Humidity: 29%   Direction: NA
Pressure: 29.98"   Gusts: NA
Location:  39.7378°N, 119.889°W
Report Text: KRTS 310535Z AUTO 00000KT 10SM CLR 14/M04 A2998 RMK AO2
Loading
Personal Weather Stations






























Interactive Weather Map New forecast layout! Learn more

10-Day Weather Forecast

Advertisements
Track Severe Weather on mobile